sensor_id;sensor_type;location;lat;lon;timestamp;P1;durP1;ratioP1;P2;durP2;ratioP2
10232;SDS011;5161;48.174;11.756;2023-03-08T00:02:19;18.93;;;13.00;;
10232;SDS011;5161;48.174;11.756;2023-03-08T00:04:45;20.73;;;13.43;;
10232;SDS011;5161;48.174;11.756;2023-03-08T00:07:11;16.70;;;13.00;;
10232;SDS011;5161;48.174;11.756;2023-03-08T00:09:37;17.63;;;12.77;;
10232;SDS011;5161;48.174;11.756;2023-03-08T00:12:02;18.20;;;13.43;;
10232;SDS011;5161;48.174;11.756;2023-03-08T00:14:28;18.57;;;12.43;;
10232;SDS011;5161;48.174;11.756;2023-03-08T00:16:54;19.70;;;12.80;;
10232;SDS011;5161;48.174;11.756;2023-03-08T00:19:20;18.43;;;12.77;;
10232;SDS011;5161;48.174;11.756;2023-03-08T00:21:45;16.00;;;12.60;;
10232;SDS011;5161;48.174;11.756;2023-03-08T00:24:11;20.83;;;12.87;;
10232;SDS011;5161;48.174;11.756;2023-03-08T00:26:40;14.70;;;11.73;;
10232;SDS011;5161;48.174;11.756;2023-03-08T00:29:06;18.57;;;13.20;;
10232;SDS011;5161;48.174;11.756;2023-03-08T00:31:32;16.33;;;12.27;;
10232;SDS011;5161;48.174;11.756;2023-03-08T00:33:58;17.80;;;13.23;;
10232;SDS011;5161;48.174;11.756;2023-03-08T00:36:23;17.90;;;12.87;;
10232;SDS011;5161;48.174;11.756;2023-03-08T00:38:49;16.50;;;12.07;;
10232;SDS011;5161;48.174;11.756;2023-03-08T00:41:15;18.33;;;12.07;;
10232;SDS011;5161;48.174;11.756;2023-03-08T00:43:41;15.63;;;11.73;;
10232;SDS011;5161;48.174;11.756;2023-03-08T00:46:07;16.63;;;12.17;;
10232;SDS011;5161;48.174;11.756;2023-03-08T00:48:33;19.23;;;12.23;;
10232;SDS011;5161;48.174;11.756;2023-03-08T00:50:59;15.37;;;11.93;;
10232;SDS011;5161;48.174;11.756;2023-03-08T00:53:27;15.10;;;11.70;;
10232;SDS011;5161;48.174;11.756;2023-03-08T00:55:56;15.20;;;12.10;;
10232;SDS011;5161;48.174;11.756;2023-03-08T00:58:26;15.30;;;11.20;;
10232;SDS011;5161;48.174;11.756;2023-03-08T01:00:56;14.83;;;10.97;;
10232;SDS011;5161;48.174;11.756;2023-03-08T01:03:22;16.07;;;11.40;;
10232;SDS011;5161;48.174;11.756;2023-03-08T01:05:51;15.60;;;11.27;;
10232;SDS011;5161;48.174;11.756;2023-03-08T01:08:19;16.33;;;11.33;;
10232;SDS011;5161;48.174;11.756;2023-03-08T01:10:55;18.43;;;10.90;;
10232;SDS011;5161;48.174;11.756;2023-03-08T01:13:27;15.17;;;11.67;;
10232;SDS011;5161;48.174;11.756;2023-03-08T01:15:58;17.37;;;11.47;;
10232;SDS011;5161;48.174;11.756;2023-03-08T01:18:24;17.03;;;11.13;;
10232;SDS011;5161;48.174;11.756;2023-03-08T01:20:54;15.00;;;10.60;;
10232;SDS011;5161;48.174;11.756;2023-03-08T01:23:30;15.23;;;11.00;;
10232;SDS011;5161;48.174;11.756;2023-03-08T01:26:04;14.50;;;10.90;;
10232;SDS011;5161;48.174;11.756;2023-03-08T01:28:38;15.37;;;10.33;;
10232;SDS011;5161;48.174;11.756;2023-03-08T01:31:08;14.73;;;10.70;;
10232;SDS011;5161;48.174;11.756;2023-03-08T01:33:42;13.13;;;10.23;;
10232;SDS011;5161;48.174;11.756;2023-03-08T01:36:13;14.00;;;10.53;;
10232;SDS011;5161;48.174;11.756;2023-03-08T01:38:42;15.23;;;11.03;;
10232;SDS011;5161;48.174;11.756;2023-03-08T01:41:14;15.40;;;10.60;;
10232;SDS011;5161;48.174;11.756;2023-03-08T01:43:45;14.63;;;10.70;;
10232;SDS011;5161;48.174;11.756;2023-03-08T01:46:19;13.17;;;10.40;;
10232;SDS011;5161;48.174;11.756;2023-03-08T01:48:50;14.87;;;10.83;;
10232;SDS011;5161;48.174;11.756;2023-03-08T01:55:06;14.00;;;10.03;;
10232;SDS011;5161;48.174;11.756;2023-03-08T01:59:50;13.30;;;10.10;;
10232;SDS011;5161;48.174;11.756;2023-03-08T02:02:22;13.97;;;10.27;;
10232;SDS011;5161;48.174;11.756;2023-03-08T02:04:51;14.93;;;10.80;;
10232;SDS011;5161;48.174;11.756;2023-03-08T02:07:17;15.57;;;11.07;;
10232;SDS011;5161;48.174;11.756;2023-03-08T02:09:43;13.70;;;10.63;;
10232;SDS011;5161;48.174;11.756;2023-03-08T02:12:11;15.13;;;10.83;;
10232;SDS011;5161;48.174;11.756;2023-03-08T02:14:38;15.13;;;11.03;;
10232;SDS011;5161;48.174;11.756;2023-03-08T02:17:08;13.90;;;10.77;;
10232;SDS011;5161;48.174;11.756;2023-03-08T02:19:38;15.73;;;11.00;;
10232;SDS011;5161;48.174;11.756;2023-03-08T02:22:09;13.53;;;10.27;;
10232;SDS011;5161;48.174;11.756;2023-03-08T02:24:36;15.20;;;10.70;;
10232;SDS011;5161;48.174;11.756;2023-03-08T02:27:05;15.53;;;10.93;;
10232;SDS011;5161;48.174;11.756;2023-03-08T02:29:37;13.90;;;10.73;;
10232;SDS011;5161;48.174;11.756;2023-03-08T02:32:03;15.83;;;11.23;;
10232;SDS011;5161;48.174;11.756;2023-03-08T02:34:29;13.93;;;10.90;;
10232;SDS011;5161;48.174;11.756;2023-03-08T02:36:55;14.17;;;11.07;;
10232;SDS011;5161;48.174;11.756;2023-03-08T02:39:20;14.00;;;10.60;;
10232;SDS011;5161;48.174;11.756;2023-03-08T02:41:46;15.17;;;11.37;;
10232;SDS011;5161;48.174;11.756;2023-03-08T02:44:12;14.83;;;11.23;;
10232;SDS011;5161;48.174;11.756;2023-03-08T02:46:40;14.53;;;10.90;;
10232;SDS011;5161;48.174;11.756;2023-03-08T02:49:06;14.13;;;11.17;;
10232;SDS011;5161;48.174;11.756;2023-03-08T02:51:32;14.33;;;10.93;;
10232;SDS011;5161;48.174;11.756;2023-03-08T02:53:58;15.33;;;11.60;;
10232;SDS011;5161;48.174;11.756;2023-03-08T02:56:24;14.93;;;11.23;;
10232;SDS011;5161;48.174;11.756;2023-03-08T02:58:50;13.13;;;10.63;;
10232;SDS011;5161;48.174;11.756;2023-03-08T03:01:15;13.90;;;11.10;;
10232;SDS011;5161;48.174;11.756;2023-03-08T03:03:41;13.93;;;10.97;;
10232;SDS011;5161;48.174;11.756;2023-03-08T03:06:13;14.20;;;11.30;;
10232;SDS011;5161;48.174;11.756;2023-03-08T03:08:41;14.87;;;11.03;;
10232;SDS011;5161;48.174;11.756;2023-03-08T03:11:10;14.83;;;11.70;;
10232;SDS011;5161;48.174;11.756;2023-03-08T03:13:36;15.60;;;10.87;;
10232;SDS011;5161;48.174;11.756;2023-03-08T03:16:08;17.07;;;11.60;;
10232;SDS011;5161;48.174;11.756;2023-03-08T03:18:35;17.10;;;11.73;;
10232;SDS011;5161;48.174;11.756;2023-03-08T03:21:09;15.43;;;11.43;;
10232;SDS011;5161;48.174;11.756;2023-03-08T03:23:37;16.37;;;12.27;;
10232;SDS011;5161;48.174;11.756;2023-03-08T03:26:07;17.73;;;11.47;;
10232;SDS011;5161;48.174;11.756;2023-03-08T03:28:38;15.07;;;11.00;;
10232;SDS011;5161;48.174;11.756;2023-03-08T03:31:09;16.80;;;12.30;;
10232;SDS011;5161;48.174;11.756;2023-03-08T03:33:40;16.23;;;11.77;;
10232;SDS011;5161;48.174;11.756;2023-03-08T03:36:22;15.67;;;11.37;;
10232;SDS011;5161;48.174;11.756;2023-03-08T03:38:48;16.87;;;11.73;;
10232;SDS011;5161;48.174;11.756;2023-03-08T03:41:18;16.33;;;12.07;;
10232;SDS011;5161;48.174;11.756;2023-03-08T03:43:45;17.80;;;11.57;;
10232;SDS011;5161;48.174;11.756;2023-03-08T03:46:12;15.63;;;11.73;;
10232;SDS011;5161;48.174;11.756;2023-03-08T03:48:42;15.40;;;11.73;;
10232;SDS011;5161;48.174;11.756;2023-03-08T03:51:12;15.93;;;11.60;;
10232;SDS011;5161;48.174;11.756;2023-03-08T03:53:40;19.33;;;11.77;;
10232;SDS011;5161;48.174;11.756;2023-03-08T03:56:16;17.97;;;12.43;;
10232;SDS011;5161;48.174;11.756;2023-03-08T03:58:43;15.17;;;11.87;;
10232;SDS011;5161;48.174;11.756;2023-03-08T04:01:11;17.03;;;12.03;;
10232;SDS011;5161;48.174;11.756;2023-03-08T04:03:41;17.47;;;12.30;;
10232;SDS011;5161;48.174;11.756;2023-03-08T04:06:17;16.57;;;12.03;;
10232;SDS011;5161;48.174;11.756;2023-03-08T04:08:45;16.53;;;12.07;;
10232;SDS011;5161;48.174;11.756;2023-03-08T04:11:12;17.37;;;11.93;;
10232;SDS011;5161;48.174;11.756;2023-03-08T04:13:40;16.43;;;12.07;;
10232;SDS011;5161;48.174;11.756;2023-03-08T04:18:42;20.33;;;12.20;;
10232;SDS011;5161;48.174;11.756;2023-03-08T04:21:08;18.23;;;12.37;;
10232;SDS011;5161;48.174;11.756;2023-03-08T04:23:35;17.80;;;11.87;;
10232;SDS011;5161;48.174;11.756;2023-03-08T04:26:01;18.33;;;12.67;;
10232;SDS011;5161;48.174;11.756;2023-03-08T04:28:30;16.73;;;12.27;;
10232;SDS011;5161;48.174;11.756;2023-03-08T04:30:57;17.47;;;11.97;;
10232;SDS011;5161;48.174;11.756;2023-03-08T04:33:24;18.07;;;12.87;;
10232;SDS011;5161;48.174;11.756;2023-03-08T04:35:50;18.47;;;13.17;;
10232;SDS011;5161;48.174;11.756;2023-03-08T04:38:16;16.07;;;12.30;;
10232;SDS011;5161;48.174;11.756;2023-03-08T04:40:49;18.97;;;12.50;;
10232;SDS011;5161;48.174;11.756;2023-03-08T04:43:30;18.33;;;12.20;;
10232;SDS011;5161;48.174;11.756;2023-03-08T04:45:57;16.60;;;12.63;;
10232;SDS011;5161;48.174;11.756;2023-03-08T04:48:26;16.73;;;11.97;;
10232;SDS011;5161;48.174;11.756;2023-03-08T04:50:55;20.03;;;13.23;;
10232;SDS011;5161;48.174;11.756;2023-03-08T04:53:23;17.37;;;12.33;;
10232;SDS011;5161;48.174;11.756;2023-03-08T04:55:49;14.97;;;11.87;;
10232;SDS011;5161;48.174;11.756;2023-03-08T04:58:16;17.80;;;12.47;;
10232;SDS011;5161;48.174;11.756;2023-03-08T05:00:42;18.03;;;12.77;;
10232;SDS011;5161;48.174;11.756;2023-03-08T05:03:08;17.07;;;11.93;;
10232;SDS011;5161;48.174;11.756;2023-03-08T05:05:34;18.23;;;12.90;;
10232;SDS011;5161;48.174;11.756;2023-03-08T05:08:00;18.80;;;12.40;;
10232;SDS011;5161;48.174;11.756;2023-03-08T05:10:32;18.00;;;12.40;;
10232;SDS011;5161;48.174;11.756;2023-03-08T05:12:58;18.23;;;13.30;;
10232;SDS011;5161;48.174;11.756;2023-03-08T05:17:49;16.23;;;12.90;;
10232;SDS011;5161;48.174;11.756;2023-03-08T05:20:15;16.37;;;12.93;;
10232;SDS011;5161;48.174;11.756;2023-03-08T05:22:41;17.33;;;13.00;;
10232;SDS011;5161;48.174;11.756;2023-03-08T05:25:07;18.00;;;13.50;;
10232;SDS011;5161;48.174;11.756;2023-03-08T05:27:33;18.97;;;13.20;;
10232;SDS011;5161;48.174;11.756;2023-03-08T05:29:59;18.33;;;13.80;;
10232;SDS011;5161;48.174;11.756;2023-03-08T05:32:25;21.17;;;13.77;;
10232;SDS011;5161;48.174;11.756;2023-03-08T05:34:53;18.70;;;13.90;;
10232;SDS011;5161;48.174;11.756;2023-03-08T05:37:19;17.97;;;13.57;;
10232;SDS011;5161;48.174;11.756;2023-03-08T05:39:45;18.27;;;13.90;;
10232;SDS011;5161;48.174;11.756;2023-03-08T05:42:20;19.40;;;14.20;;
10232;SDS011;5161;48.174;11.756;2023-03-08T05:44:49;20.43;;;14.70;;
10232;SDS011;5161;48.174;11.756;2023-03-08T05:47:14;20.10;;;13.90;;
10232;SDS011;5161;48.174;11.756;2023-03-08T05:49:42;23.53;;;14.53;;
10232;SDS011;5161;48.174;11.756;2023-03-08T05:52:10;19.33;;;14.27;;
10232;SDS011;5161;48.174;11.756;2023-03-08T05:54:36;20.43;;;13.83;;
10232;SDS011;5161;48.174;11.756;2023-03-08T05:57:03;19.10;;;13.97;;
10232;SDS011;5161;48.174;11.756;2023-03-08T05:59:29;21.60;;;15.33;;
10232;SDS011;5161;48.174;11.756;2023-03-08T06:01:54;22.37;;;15.33;;
10232;SDS011;5161;48.174;11.756;2023-03-08T06:04:21;21.50;;;15.93;;
10232;SDS011;5161;48.174;11.756;2023-03-08T06:06:46;21.97;;;16.17;;
10232;SDS011;5161;48.174;11.756;2023-03-08T06:09:12;23.77;;;15.77;;
10232;SDS011;5161;48.174;11.756;2023-03-08T06:11:40;20.17;;;15.00;;
10232;SDS011;5161;48.174;11.756;2023-03-08T06:14:06;24.53;;;16.30;;
10232;SDS011;5161;48.174;11.756;2023-03-08T06:16:31;20.57;;;15.47;;
10232;SDS011;5161;48.174;11.756;2023-03-08T06:18:57;21.30;;;15.13;;
10232;SDS011;5161;48.174;11.756;2023-03-08T06:21:23;23.93;;;16.40;;
10232;SDS011;5161;48.174;11.756;2023-03-08T06:23:48;23.53;;;15.93;;
10232;SDS011;5161;48.174;11.756;2023-03-08T06:26:14;25.90;;;15.73;;
10232;SDS011;5161;48.174;11.756;2023-03-08T06:28:40;22.50;;;16.00;;
10232;SDS011;5161;48.174;11.756;2023-03-08T06:31:07;21.67;;;15.80;;
10232;SDS011;5161;48.174;11.756;2023-03-08T06:33:35;22.53;;;15.70;;
10232;SDS011;5161;48.174;11.756;2023-03-08T06:36:02;25.73;;;16.40;;
10232;SDS011;5161;48.174;11.756;2023-03-08T06:38:31;26.37;;;16.40;;
10232;SDS011;5161;48.174;11.756;2023-03-08T06:40:58;25.83;;;16.00;;
10232;SDS011;5161;48.174;11.756;2023-03-08T06:43:24;24.90;;;15.93;;
10232;SDS011;5161;48.174;11.756;2023-03-08T06:45:50;28.30;;;16.07;;
10232;SDS011;5161;48.174;11.756;2023-03-08T06:48:15;27.77;;;16.47;;
10232;SDS011;5161;48.174;11.756;2023-03-08T06:50:41;27.33;;;16.00;;
10232;SDS011;5161;48.174;11.756;2023-03-08T06:53:07;26.83;;;15.97;;
10232;SDS011;5161;48.174;11.756;2023-03-08T06:55:33;23.63;;;16.00;;
10232;SDS011;5161;48.174;11.756;2023-03-08T06:58:00;25.30;;;15.63;;
10232;SDS011;5161;48.174;11.756;2023-03-08T07:00:26;26.90;;;16.17;;
10232;SDS011;5161;48.174;11.756;2023-03-08T07:02:51;23.27;;;16.03;;
10232;SDS011;5161;48.174;11.756;2023-03-08T07:05:18;26.00;;;16.17;;
10232;SDS011;5161;48.174;11.756;2023-03-08T07:07:44;27.90;;;15.87;;
10232;SDS011;5161;48.174;11.756;2023-03-08T07:10:10;27.17;;;16.07;;
10232;SDS011;5161;48.174;11.756;2023-03-08T07:12:41;22.13;;;15.27;;
10232;SDS011;5161;48.174;11.756;2023-03-08T07:15:11;25.13;;;15.83;;
10232;SDS011;5161;48.174;11.756;2023-03-08T07:17:41;23.53;;;15.80;;
10232;SDS011;5161;48.174;11.756;2023-03-08T07:20:07;23.10;;;15.27;;
10232;SDS011;5161;48.174;11.756;2023-03-08T07:22:34;22.50;;;15.83;;
10232;SDS011;5161;48.174;11.756;2023-03-08T07:25:00;21.67;;;15.17;;
10232;SDS011;5161;48.174;11.756;2023-03-08T07:27:25;27.60;;;15.83;;
10232;SDS011;5161;48.174;11.756;2023-03-08T07:29:51;19.87;;;15.23;;
10232;SDS011;5161;48.174;11.756;2023-03-08T07:32:17;24.20;;;15.10;;
10232;SDS011;5161;48.174;11.756;2023-03-08T07:34:43;22.23;;;15.07;;
10232;SDS011;5161;48.174;11.756;2023-03-08T07:37:12;22.27;;;14.97;;
10232;SDS011;5161;48.174;11.756;2023-03-08T07:39:39;23.60;;;15.20;;
10232;SDS011;5161;48.174;11.756;2023-03-08T07:42:04;23.17;;;15.70;;
10232;SDS011;5161;48.174;11.756;2023-03-08T07:44:30;22.17;;;15.20;;
10232;SDS011;5161;48.174;11.756;2023-03-08T07:46:56;22.30;;;15.17;;
10232;SDS011;5161;48.174;11.756;2023-03-08T07:49:21;28.97;;;16.47;;
10232;SDS011;5161;48.174;11.756;2023-03-08T07:51:48;22.07;;;16.13;;
10232;SDS011;5161;48.174;11.756;2023-03-08T07:54:18;23.17;;;15.50;;
10232;SDS011;5161;48.174;11.756;2023-03-08T07:56:43;20.03;;;14.83;;
10232;SDS011;5161;48.174;11.756;2023-03-08T07:59:09;21.67;;;15.00;;
10232;SDS011;5161;48.174;11.756;2023-03-08T08:01:35;23.87;;;16.10;;
10232;SDS011;5161;48.174;11.756;2023-03-08T08:04:01;21.67;;;14.90;;
10232;SDS011;5161;48.174;11.756;2023-03-08T08:06:27;21.37;;;15.27;;
10232;SDS011;5161;48.174;11.756;2023-03-08T08:08:56;21.70;;;15.73;;
10232;SDS011;5161;48.174;11.756;2023-03-08T08:11:22;21.57;;;15.57;;
10232;SDS011;5161;48.174;11.756;2023-03-08T08:13:48;21.37;;;15.30;;
10232;SDS011;5161;48.174;11.756;2023-03-08T08:16:16;19.77;;;15.20;;
10232;SDS011;5161;48.174;11.756;2023-03-08T08:18:41;21.70;;;14.50;;
10232;SDS011;5161;48.174;11.756;2023-03-08T08:21:09;22.90;;;14.60;;
10232;SDS011;5161;48.174;11.756;2023-03-08T08:23:36;22.87;;;15.93;;
10232;SDS011;5161;48.174;11.756;2023-03-08T08:26:04;19.17;;;14.53;;
10232;SDS011;5161;48.174;11.756;2023-03-08T08:28:40;19.57;;;14.40;;
10232;SDS011;5161;48.174;11.756;2023-03-08T08:31:08;22.80;;;14.70;;
10232;SDS011;5161;48.174;11.756;2023-03-08T08:33:40;17.77;;;13.73;;
10232;SDS011;5161;48.174;11.756;2023-03-08T08:36:06;20.50;;;13.80;;
10232;SDS011;5161;48.174;11.756;2023-03-08T08:38:34;18.47;;;13.97;;
10232;SDS011;5161;48.174;11.756;2023-03-08T08:41:00;20.43;;;13.77;;
10232;SDS011;5161;48.174;11.756;2023-03-08T08:43:28;16.97;;;13.33;;
10232;SDS011;5161;48.174;11.756;2023-03-08T08:45:55;17.30;;;13.53;;
10232;SDS011;5161;48.174;11.756;2023-03-08T08:48:24;22.43;;;14.47;;
10232;SDS011;5161;48.174;11.756;2023-03-08T08:50:51;20.23;;;13.37;;
10232;SDS011;5161;48.174;11.756;2023-03-08T08:53:17;20.37;;;13.83;;
10232;SDS011;5161;48.174;11.756;2023-03-08T08:55:44;18.60;;;13.73;;
10232;SDS011;5161;48.174;11.756;2023-03-08T08:58:10;17.10;;;13.40;;
10232;SDS011;5161;48.174;11.756;2023-03-08T09:00:36;18.30;;;14.50;;
10232;SDS011;5161;48.174;11.756;2023-03-08T09:03:02;20.87;;;15.30;;
10232;SDS011;5161;48.174;11.756;2023-03-08T09:05:29;22.10;;;15.77;;
10232;SDS011;5161;48.174;11.756;2023-03-08T09:07:57;22.47;;;16.33;;
10232;SDS011;5161;48.174;11.756;2023-03-08T09:10:24;22.87;;;16.00;;
10232;SDS011;5161;48.174;11.756;2023-03-08T09:12:51;25.03;;;16.70;;
10232;SDS011;5161;48.174;11.756;2023-03-08T09:15:17;23.70;;;17.27;;
10232;SDS011;5161;48.174;11.756;2023-03-08T09:17:43;29.10;;;17.00;;
10232;SDS011;5161;48.174;11.756;2023-03-08T09:20:09;23.37;;;16.50;;
10232;SDS011;5161;48.174;11.756;2023-03-08T09:22:36;21.73;;;15.57;;
10232;SDS011;5161;48.174;11.756;2023-03-08T09:25:02;23.40;;;16.17;;
10232;SDS011;5161;48.174;11.756;2023-03-08T09:27:29;22.13;;;16.17;;
10232;SDS011;5161;48.174;11.756;2023-03-08T09:29:55;19.20;;;15.80;;
10232;SDS011;5161;48.174;11.756;2023-03-08T09:32:22;21.90;;;15.43;;
10232;SDS011;5161;48.174;11.756;2023-03-08T09:34:47;23.07;;;15.30;;
10232;SDS011;5161;48.174;11.756;2023-03-08T09:37:13;21.43;;;15.83;;
10232;SDS011;5161;48.174;11.756;2023-03-08T09:39:39;20.57;;;15.30;;
10232;SDS011;5161;48.174;11.756;2023-03-08T09:42:04;21.47;;;15.47;;
10232;SDS011;5161;48.174;11.756;2023-03-08T09:47:44;23.70;;;14.73;;
10232;SDS011;5161;48.174;11.756;2023-03-08T09:55:31;20.67;;;15.23;;
10232;SDS011;5161;48.174;11.756;2023-03-08T09:58:04;23.80;;;15.17;;
10232;SDS011;5161;48.174;11.756;2023-03-08T10:00:38;19.23;;;14.93;;
10232;SDS011;5161;48.174;11.756;2023-03-08T10:06:04;20.50;;;14.53;;
10232;SDS011;5161;48.174;11.756;2023-03-08T10:14:17;19.83;;;15.43;;
10232;SDS011;5161;48.174;11.756;2023-03-08T10:16:52;21.23;;;15.17;;
10232;SDS011;5161;48.174;11.756;2023-03-08T10:19:25;21.17;;;14.70;;
10232;SDS011;5161;48.174;11.756;2023-03-08T10:22:05;18.80;;;15.03;;
10232;SDS011;5161;48.174;11.756;2023-03-08T10:24:44;23.20;;;14.60;;
10232;SDS011;5161;48.174;11.756;2023-03-08T10:27:23;20.23;;;14.43;;
10232;SDS011;5161;48.174;11.756;2023-03-08T10:29:52;23.67;;;15.70;;
10232;SDS011;5161;48.174;11.756;2023-03-08T10:32:20;21.50;;;15.13;;
10232;SDS011;5161;48.174;11.756;2023-03-08T10:34:46;21.47;;;15.20;;
10232;SDS011;5161;48.174;11.756;2023-03-08T10:37:12;22.07;;;15.17;;
10232;SDS011;5161;48.174;11.756;2023-03-08T10:39:52;19.57;;;15.13;;
10232;SDS011;5161;48.174;11.756;2023-03-08T10:42:20;20.07;;;14.80;;
10232;SDS011;5161;48.174;11.756;2023-03-08T10:45:29;19.83;;;14.40;;
10232;SDS011;5161;48.174;11.756;2023-03-08T10:47:38;18.97;;;15.00;;
10232;SDS011;5161;48.174;11.756;2023-03-08T10:50:18;20.67;;;15.50;;
10232;SDS011;5161;48.174;11.756;2023-03-08T10:52:47;20.23;;;15.67;;
10232;SDS011;5161;48.174;11.756;2023-03-08T10:55:16;22.03;;;16.47;;
10232;SDS011;5161;48.174;11.756;2023-03-08T10:57:48;22.90;;;15.70;;
10232;SDS011;5161;48.174;11.756;2023-03-08T11:02:44;21.53;;;15.60;;
10232;SDS011;5161;48.174;11.756;2023-03-08T11:05:16;21.07;;;16.77;;
10232;SDS011;5161;48.174;11.756;2023-03-08T11:07:50;25.73;;;17.53;;
10232;SDS011;5161;48.174;11.756;2023-03-08T11:10:19;19.07;;;14.43;;
10232;SDS011;5161;48.174;11.756;2023-03-08T11:12:58;21.50;;;16.07;;
10232;SDS011;5161;48.174;11.756;2023-03-08T11:15:26;21.90;;;15.73;;
10232;SDS011;5161;48.174;11.756;2023-03-08T11:18:03;24.47;;;15.97;;
10232;SDS011;5161;48.174;11.756;2023-03-08T11:20:48;21.07;;;14.30;;
10232;SDS011;5161;48.174;11.756;2023-03-08T11:23:21;18.83;;;10.80;;
10232;SDS011;5161;48.174;11.756;2023-03-08T11:39:58;16.73;;;11.13;;
10232;SDS011;5161;48.174;11.756;2023-03-08T11:45:17;16.07;;;10.07;;
10232;SDS011;5161;48.174;11.756;2023-03-08T11:48:02;13.03;;;9.77;;
10232;SDS011;5161;48.174;11.756;2023-03-08T11:51:05;17.73;;;9.90;;
10232;SDS011;5161;48.174;11.756;2023-03-08T11:53:55;12.47;;;9.27;;
10232;SDS011;5161;48.174;11.756;2023-03-08T11:56:45;13.13;;;9.57;;
10232;SDS011;5161;48.174;11.756;2023-03-08T11:59:34;15.87;;;10.97;;
10232;SDS011;5161;48.174;11.756;2023-03-08T12:07:16;15.30;;;10.80;;
10232;SDS011;5161;48.174;11.756;2023-03-08T12:13:04;14.23;;;10.90;;
10232;SDS011;5161;48.174;11.756;2023-03-08T12:18:33;13.47;;;10.40;;
10232;SDS011;5161;48.174;11.756;2023-03-08T12:27:07;15.03;;;10.53;;
10232;SDS011;5161;48.174;11.756;2023-03-08T12:29:48;15.03;;;10.30;;
10232;SDS011;5161;48.174;11.756;2023-03-08T12:32:21;15.77;;;10.53;;
10232;SDS011;5161;48.174;11.756;2023-03-08T12:34:59;16.70;;;10.30;;
10232;SDS011;5161;48.174;11.756;2023-03-08T12:40:50;15.13;;;8.93;;
10232;SDS011;5161;48.174;11.756;2023-03-08T13:01:22;10.30;;;8.17;;
10232;SDS011;5161;48.174;11.756;2023-03-08T13:04:00;12.77;;;8.10;;
10232;SDS011;5161;48.174;11.756;2023-03-08T13:10:17;18.43;;;7.60;;
10232;SDS011;5161;48.174;11.756;2023-03-08T13:12:22;10.97;;;7.40;;
10232;SDS011;5161;48.174;11.756;2023-03-08T13:14:58;13.23;;;7.43;;
10232;SDS011;5161;48.174;11.756;2023-03-08T13:20:18;14.03;;;7.30;;
10232;SDS011;5161;48.174;11.756;2023-03-08T13:23:16;9.00;;;6.77;;
10232;SDS011;5161;48.174;11.756;2023-03-08T13:28:37;13.47;;;7.30;;
10232;SDS011;5161;48.174;11.756;2023-03-08T13:34:02;9.70;;;6.20;;
10232;SDS011;5161;48.174;11.756;2023-03-08T13:36:29;10.10;;;6.07;;
10232;SDS011;5161;48.174;11.756;2023-03-08T13:41:34;9.20;;;4.73;;
10232;SDS011;5161;48.174;11.756;2023-03-08T13:44:00;7.43;;;3.80;;
10232;SDS011;5161;48.174;11.756;2023-03-08T13:46:27;11.90;;;2.50;;
10232;SDS011;5161;48.174;11.756;2023-03-08T13:48:53;2.17;;;1.80;;
10232;SDS011;5161;48.174;11.756;2023-03-08T13:51:19;2.03;;;1.80;;
10232;SDS011;5161;48.174;11.756;2023-03-08T13:53:48;8.60;;;1.70;;
10232;SDS011;5161;48.174;11.756;2023-03-08T13:56:24;1.70;;;1.60;;
10232;SDS011;5161;48.174;11.756;2023-03-08T13:58:52;1.43;;;1.43;;
10232;SDS011;5161;48.174;11.756;2023-03-08T14:01:23;6.03;;;1.80;;
10232;SDS011;5161;48.174;11.756;2023-03-08T14:03:51;1.57;;;1.43;;
10232;SDS011;5161;48.174;11.756;2023-03-08T14:08:52;3.37;;;1.83;;
10232;SDS011;5161;48.174;11.756;2023-03-08T14:11:36;1.43;;;1.43;;
10232;SDS011;5161;48.174;11.756;2023-03-08T14:14:05;4.30;;;1.30;;
10232;SDS011;5161;48.174;11.756;2023-03-08T14:16:37;4.20;;;1.60;;
10232;SDS011;5161;48.174;11.756;2023-03-08T14:19:09;3.37;;;1.50;;
10232;SDS011;5161;48.174;11.756;2023-03-08T14:21:48;2.53;;;1.50;;
10232;SDS011;5161;48.174;11.756;2023-03-08T14:24:17;3.80;;;1.80;;
10232;SDS011;5161;48.174;11.756;2023-03-08T14:26:52;7.47;;;1.47;;
10232;SDS011;5161;48.174;11.756;2023-03-08T14:34:38;2.80;;;1.57;;
10232;SDS011;5161;48.174;11.756;2023-03-08T14:37:06;1.83;;;1.40;;
10232;SDS011;5161;48.174;11.756;2023-03-08T14:39:35;3.33;;;1.70;;
10232;SDS011;5161;48.174;11.756;2023-03-08T14:42:07;1.83;;;1.40;;
10232;SDS011;5161;48.174;11.756;2023-03-08T14:44:39;1.40;;;1.30;;
10232;SDS011;5161;48.174;11.756;2023-03-08T14:47:25;2.27;;;1.40;;
10232;SDS011;5161;48.174;11.756;2023-03-08T14:50:14;5.40;;;1.50;;
10232;SDS011;5161;48.174;11.756;2023-03-08T14:52:50;3.27;;;1.60;;
10232;SDS011;5161;48.174;11.756;2023-03-08T14:57:46;4.30;;;1.60;;
10232;SDS011;5161;48.174;11.756;2023-03-08T15:00:13;4.43;;;1.40;;
10232;SDS011;5161;48.174;11.756;2023-03-08T15:02:40;5.10;;;1.40;;
10232;SDS011;5161;48.174;11.756;2023-03-08T15:05:16;1.50;;;1.40;;
10232;SDS011;5161;48.174;11.756;2023-03-08T15:07:45;2.40;;;1.70;;
10232;SDS011;5161;48.174;11.756;2023-03-08T15:10:34;2.03;;;1.80;;
10232;SDS011;5161;48.174;11.756;2023-03-08T15:13:01;3.13;;;1.70;;
10232;SDS011;5161;48.174;11.756;2023-03-08T15:15:27;2.37;;;1.80;;
10232;SDS011;5161;48.174;11.756;2023-03-08T15:17:52;2.80;;;1.70;;
10232;SDS011;5161;48.174;11.756;2023-03-08T15:20:18;2.07;;;1.53;;
10232;SDS011;5161;48.174;11.756;2023-03-08T15:22:46;1.70;;;1.60;;
10232;SDS011;5161;48.174;11.756;2023-03-08T15:25:22;3.43;;;1.50;;
10232;SDS011;5161;48.174;11.756;2023-03-08T15:27:50;3.37;;;1.50;;
10232;SDS011;5161;48.174;11.756;2023-03-08T15:30:17;2.63;;;1.60;;
10232;SDS011;5161;48.174;11.756;2023-03-08T15:32:45;4.83;;;1.93;;
10232;SDS011;5161;48.174;11.756;2023-03-08T15:35:10;2.97;;;1.73;;
10232;SDS011;5161;48.174;11.756;2023-03-08T15:37:36;1.90;;;1.70;;
10232;SDS011;5161;48.174;11.756;2023-03-08T15:40:02;2.50;;;1.77;;
10232;SDS011;5161;48.174;11.756;2023-03-08T15:42:32;4.33;;;1.77;;
10232;SDS011;5161;48.174;11.756;2023-03-08T15:44:58;1.77;;;1.67;;
10232;SDS011;5161;48.174;11.756;2023-03-08T15:47:23;14.60;;;1.90;;
10232;SDS011;5161;48.174;11.756;2023-03-08T15:49:49;2.00;;;1.50;;
10232;SDS011;5161;48.174;11.756;2023-03-08T15:52:15;1.90;;;1.80;;
10232;SDS011;5161;48.174;11.756;2023-03-08T15:54:41;2.70;;;1.70;;
10232;SDS011;5161;48.174;11.756;2023-03-08T15:57:11;2.93;;;1.70;;
10232;SDS011;5161;48.174;11.756;2023-03-08T15:59:39;4.07;;;1.93;;
10232;SDS011;5161;48.174;11.756;2023-03-08T16:02:05;1.77;;;1.67;;
10232;SDS011;5161;48.174;11.756;2023-03-08T16:04:37;2.00;;;1.80;;
10232;SDS011;5161;48.174;11.756;2023-03-08T16:07:05;2.60;;;1.80;;
10232;SDS011;5161;48.174;11.756;2023-03-08T16:09:31;1.80;;;1.77;;
10232;SDS011;5161;48.174;11.756;2023-03-08T16:11:57;1.93;;;1.83;;
10232;SDS011;5161;48.174;11.756;2023-03-08T16:14:22;2.10;;;2.00;;
10232;SDS011;5161;48.174;11.756;2023-03-08T16:16:48;3.33;;;1.90;;
10232;SDS011;5161;48.174;11.756;2023-03-08T16:19:13;2.73;;;1.87;;
10232;SDS011;5161;48.174;11.756;2023-03-08T16:21:39;2.80;;;2.60;;
10232;SDS011;5161;48.174;11.756;2023-03-08T16:24:04;2.77;;;2.30;;
10232;SDS011;5161;48.174;11.756;2023-03-08T16:26:30;2.20;;;2.10;;
10232;SDS011;5161;48.174;11.756;2023-03-08T16:28:56;2.13;;;2.00;;